Time;durP1;ratioP1;P1;durP2;ratioP2;P2;SDS_P1;SDS_P2;PMS_P1;PMS_P2;Temp;Humidity;BMP_temperature;BMP_pressure;BME280_temperature;BME280_humidity;BME280_pressure;Samples;Min_cycle;Max_cycle;Signal;HPM_P1;HPM_P2
2021/03/18 00:01:40;;;;;;;95.15;28.67;;;;;;;;;;5132803;28;20074;-88
2021/03/18 00:04:08;;;;;;;86.13;30.92;;;;;;;;;;5127240;28;20051;-87
2021/03/18 00:06:36;;;;;;;75.43;30.40;;;;;;;;;;5122784;28;20048;-87
2021/03/18 00:09:05;;;;;;;69.53;28.55;;;;;;;;;;5126266;28;20113;-87
2021/03/18 00:11:34;;;;;;;141.93;33.15;;;;;;;;;;5133163;28;20077;-87
2021/03/18 00:14:00;;;;;;;94.07;32.30;;;;;;;;;;5132403;28;20035;-87
2021/03/18 00:16:26;;;;;;;96.63;30.13;;;;;;;;;;5116408;28;20048;-87
2021/03/18 00:18:54;;;;;;;83.30;27.85;;;;;;;;;;5114844;28;20055;-88
2021/03/18 00:21:23;;;;;;;89.00;27.60;;;;;;;;;;5122313;28;20086;-88
2021/03/18 00:23:52;;;;;;;70.32;27.17;;;;;;;;;;5116400;28;20055;-88
2021/03/18 00:26:21;;;;;;;147.98;30.50;;;;;;;;;;5114391;28;20082;-88
2021/03/18 00:28:47;;;;;;;100.75;29.10;;;;;;;;;;5113752;28;20059;-87
2021/03/18 00:31:19;;;;;;;87.93;29.17;;;;;;;;;;5115824;28;20048;-87
2021/03/18 00:33:47;;;;;;;100.10;30.38;;;;;;;;;;5115302;27;20055;-87
2021/03/18 00:36:18;;;;;;;118.93;31.25;;;;;;;;;;5114108;28;20048;-88
2021/03/18 00:38:47;;;;;;;88.25;28.85;;;;;;;;;;5116391;28;20146;-88
2021/03/18 00:41:15;;;;;;;66.35;29.48;;;;;;;;;;5116015;28;20051;-88
2021/03/18 00:43:41;;;;;;;87.03;29.23;;;;;;;;;;5116119;28;20047;-88
2021/03/18 00:46:11;;;;;;;212.93;36.60;;;;;;;;;;5114684;28;20170;-88
2021/03/18 00:48:37;;;;;;;71.13;30.75;;;;;;;;;;5115838;28;20166;-88
2021/03/18 00:51:14;;;;;;;82.97;32.25;;;;;;;;;;5115180;28;20047;-88
2021/03/18 00:53:41;;;;;;;85.57;29.50;;;;;;;;;;5114464;28;20057;-88
2021/03/18 00:56:20;;;;;;;93.00;32.40;;;;;;;;;;5118640;28;20083;-88
2021/03/18 00:58:50;;;;;;;74.90;29.30;;;;;;;;;;5115988;28;20051;-88
2021/03/18 01:01:21;;;;;;;148.75;31.55;;;;;;;;;;5115971;28;20139;-88
2021/03/18 01:03:47;;;;;;;107.95;30.00;;;;;;;;;;5114991;28;20043;-88
2021/03/18 01:06:16;;;;;;;112.13;29.85;;;;;;;;;;5117668;28;20260;-88
2021/03/18 01:08:42;;;;;;;91.88;30.38;;;;;;;;;;5116895;28;20059;-88
2021/03/18 01:11:15;;;;;;;92.30;33.80;;;;;;;;;;5116912;28;20101;-88
2021/03/18 01:13:43;;;;;;;101.38;37.08;;;;;;;;;;5119242;27;20048;-88
2021/03/18 01:16:20;;;;;;;84.30;32.85;;;;;;;;;;5120997;28;20090;-88
2021/03/18 01:18:57;;;;;;;153.02;38.78;;;;;;;;;;5117976;28;20087;-88
2021/03/18 01:21:34;;;;;;;108.88;33.65;;;;;;;;;;5118936;28;20053;-87
2021/03/18 01:24:05;;;;;;;98.45;32.97;;;;;;;;;;5118173;28;20067;-87
2021/03/18 01:26:33;;;;;;;114.93;34.60;;;;;;;;;;5117682;28;20054;-87
2021/03/18 01:29:02;;;;;;;95.15;34.42;;;;;;;;;;5118933;28;20051;-87
2021/03/18 01:31:28;;;;;;;121.40;33.80;;;;;;;;;;5117465;28;20052;-87
2021/03/18 01:33:55;;;;;;;228.52;39.50;;;;;;;;;;5119380;28;20058;-88
2021/03/18 01:36:22;;;;;;;111.38;31.50;;;;;;;;;;5117826;28;20327;-88
2021/03/18 01:38:51;;;;;;;137.65;33.85;;;;;;;;;;5119173;28;20031;-88
2021/03/18 01:41:18;;;;;;;126.57;31.83;;;;;;;;;;5119341;28;20048;-88
2021/03/18 01:43:47;;;;;;;211.02;35.38;;;;;;;;;;5117553;28;20253;-87
2021/03/18 01:46:14;;;;;;;234.65;39.30;;;;;;;;;;5117356;28;20051;-87
2021/03/18 01:48:43;;;;;;;84.40;29.42;;;;;;;;;;5122285;28;20046;-86
2021/03/18 01:51:14;;;;;;;155.35;31.25;;;;;;;;;;5134802;28;20039;-87
2021/03/18 01:53:43;;;;;;;117.90;29.85;;;;;;;;;;5132632;28;20039;-87
2021/03/18 01:56:09;;;;;;;161.77;32.47;;;;;;;;;;5119717;28;20074;-88
2021/03/18 01:58:41;;;;;;;100.82;27.63;;;;;;;;;;5119489;27;20055;-87
2021/03/18 02:01:08;;;;;;;82.28;27.73;;;;;;;;;;5119567;28;20066;-87
2021/03/18 02:03:35;;;;;;;112.18;29.35;;;;;;;;;;5134435;28;20091;-86
2021/03/18 02:06:06;;;;;;;340.38;44.78;;;;;;;;;;5129320;28;20058;-87
2021/03/18 02:08:34;;;;;;;102.30;27.98;;;;;;;;;;5123376;28;20090;-87
2021/03/18 02:11:00;;;;;;;84.80;29.10;;;;;;;;;;5115990;28;20430;-88
2021/03/18 02:13:26;;;;;;;89.28;27.27;;;;;;;;;;5117982;28;20051;-87
2021/03/18 02:16:04;;;;;;;103.10;27.45;;;;;;;;;;5126789;28;20058;-87
2021/03/18 02:18:33;;;;;;;101.28;26.83;;;;;;;;;;5131292;28;20088;-87
2021/03/18 02:21:18;;;;;;;253.32;34.15;;;;;;;;;;5128739;28;20048;-87
2021/03/18 02:24:01;;;;;;;79.60;26.35;;;;;;;;;;5120159;28;20104;-87
2021/03/18 02:26:33;;;;;;;102.88;26.73;;;;;;;;;;5117021;28;20055;-87
2021/03/18 02:29:18;;;;;;;210.52;30.38;;;;;;;;;;5117534;28;20051;-86
2021/03/18 02:32:07;;;;;;;78.05;25.33;;;;;;;;;;5115609;28;20074;-86
2021/03/18 02:34:47;;;;;;;160.45;28.70;;;;;;;;;;5117898;28;20051;-87
2021/03/18 02:37:17;;;;;;;76.85;26.58;;;;;;;;;;5118356;28;20052;-86
2021/03/18 02:39:47;;;;;;;79.50;28.77;;;;;;;;;;5117986;28;20051;-86
2021/03/18 02:42:16;;;;;;;73.00;29.10;;;;;;;;;;5117376;28;20062;-86
2021/03/18 02:44:45;;;;;;;93.57;28.20;;;;;;;;;;5117158;28;20123;-87
2021/03/18 02:47:15;;;;;;;102.47;30.63;;;;;;;;;;5119586;28;20303;-86
2021/03/18 02:49:43;;;;;;;113.25;29.10;;;;;;;;;;5119862;28;20439;-86
2021/03/18 02:52:11;;;;;;;170.43;33.92;;;;;;;;;;5118452;28;20480;-87
2021/03/18 02:54:37;;;;;;;111.35;30.52;;;;;;;;;;5117180;28;20043;-86
2021/03/18 02:57:06;;;;;;;71.45;29.23;;;;;;;;;;5116780;28;20422;-86
2021/03/18 02:59:34;;;;;;;94.25;29.50;;;;;;;;;;5123903;28;20209;-86
2021/03/18 03:02:02;;;;;;;85.30;28.70;;;;;;;;;;5130648;28;20039;-88
2021/03/18 03:04:34;;;;;;;94.80;31.20;;;;;;;;;;5130984;28;20074;-88
2021/03/18 03:07:01;;;;;;;100.32;30.52;;;;;;;;;;5131552;28;20200;-88
2021/03/18 03:09:31;;;;;;;90.30;29.67;;;;;;;;;;5132050;28;20046;-88
2021/03/18 03:11:58;;;;;;;69.80;26.50;;;;;;;;;;5127699;27;20434;-86
2021/03/18 03:14:24;;;;;;;80.38;27.38;;;;;;;;;;5121226;28;20081;-88
2021/03/18 03:16:50;;;;;;;68.63;27.42;;;;;;;;;;5118375;28;20404;-88
2021/03/18 03:19:21;;;;;;;71.28;27.63;;;;;;;;;;5117408;28;20047;-87
2021/03/18 03:21:48;;;;;;;72.25;26.08;;;;;;;;;;5118715;27;20446;-87
2021/03/18 03:24:15;;;;;;;69.03;27.75;;;;;;;;;;5122294;28;20067;-86
2021/03/18 03:26:41;;;;;;;66.85;26.52;;;;;;;;;;5120842;28;20051;-86
2021/03/18 03:29:18;;;;;;;175.95;30.92;;;;;;;;;;5119510;28;20201;-86
2021/03/18 03:31:44;;;;;;;80.95;26.98;;;;;;;;;;5120952;28;20055;-86
2021/03/18 03:34:10;;;;;;;106.28;27.10;;;;;;;;;;5120913;28;20109;-86
2021/03/18 03:36:41;;;;;;;68.43;26.55;;;;;;;;;;5117897;28;20408;-86
2021/03/18 03:39:23;;;;;;;93.95;27.48;;;;;;;;;;5123710;28;20067;-86
2021/03/18 03:41:52;;;;;;;59.75;25.08;;;;;;;;;;5122076;27;20341;-86
2021/03/18 03:44:21;;;;;;;72.32;26.80;;;;;;;;;;5121729;28;20051;-86
2021/03/18 03:46:47;;;;;;;66.78;28.02;;;;;;;;;;5121631;28;20051;-86
2021/03/18 03:49:16;;;;;;;65.88;25.77;;;;;;;;;;5122431;27;20067;-87
2021/03/18 03:52:01;;;;;;;118.95;26.17;;;;;;;;;;5122376;28;20067;-87
2021/03/18 03:54:27;;;;;;;63.05;23.17;;;;;;;;;;5124081;28;20039;-87
2021/03/18 03:57:00;;;;;;;107.95;24.85;;;;;;;;;;5125552;28;20212;-86
2021/03/18 03:59:26;;;;;;;37.63;19.02;;;;;;;;;;5123232;28;20055;-87
2021/03/18 04:01:56;;;;;;;40.25;19.10;;;;;;;;;;5124309;27;20048;-87
2021/03/18 04:04:32;;;;;;;93.18;21.13;;;;;;;;;;5125683;27;20052;-86
2021/03/18 04:07:01;;;;;;;68.80;22.23;;;;;;;;;;5125724;28;20067;-86
2021/03/18 04:09:28;;;;;;;59.40;24.63;;;;;;;;;;5125702;28;20144;-86
2021/03/18 04:11:55;;;;;;;108.47;24.67;;;;;;;;;;5124450;28;20097;-85
2021/03/18 04:14:25;;;;;;;48.50;22.70;;;;;;;;;;5122093;28;20043;-86
2021/03/18 04:16:57;;;;;;;54.08;22.90;;;;;;;;;;5123478;28;20055;-86
2021/03/18 04:19:24;;;;;;;58.45;23.27;;;;;;;;;;5124017;28;20043;-86
2021/03/18 04:21:51;;;;;;;58.88;22.30;;;;;;;;;;5124204;28;20040;-86
2021/03/18 04:24:18;;;;;;;92.28;24.10;;;;;;;;;;5124328;28;20043;-86
2021/03/18 04:26:47;;;;;;;70.35;24.98;;;;;;;;;;5123839;28;20203;-86
2021/03/18 04:29:16;;;;;;;56.53;23.30;;;;;;;;;;5123144;28;20048;-87
2021/03/18 04:31:46;;;;;;;49.53;23.25;;;;;;;;;;5122922;28;20067;-87
2021/03/18 04:34:16;;;;;;;54.25;23.45;;;;;;;;;;5123556;28;20382;-87
2021/03/18 04:36:48;;;;;;;46.83;22.08;;;;;;;;;;5123327;28;20047;-87
2021/03/18 04:39:16;;;;;;;56.00;22.67;;;;;;;;;;5123729;28;20053;-88
2021/03/18 04:41:45;;;;;;;85.22;24.20;;;;;;;;;;5123049;28;20329;-88
2021/03/18 04:44:15;;;;;;;121.13;25.50;;;;;;;;;;5120255;28;20055;-88
2021/03/18 04:46:45;;;;;;;54.00;22.65;;;;;;;;;;5117675;28;20057;-88
2021/03/18 04:49:14;;;;;;;51.85;22.73;;;;;;;;;;5120942;28;20054;-88
2021/03/18 04:51:41;;;;;;;49.83;22.25;;;;;;;;;;5120991;27;20130;-88
2021/03/18 04:54:18;;;;;;;59.17;22.02;;;;;;;;;;5118263;28;20111;-88
2021/03/18 04:56:45;;;;;;;86.85;24.38;;;;;;;;;;5118291;27;20116;-88
2021/03/18 04:59:15;;;;;;;65.32;23.50;;;;;;;;;;5118102;28;20078;-88
2021/03/18 05:01:48;;;;;;;57.08;23.52;;;;;;;;;;5119337;28;20100;-88
2021/03/18 05:04:19;;;;;;;77.68;23.85;;;;;;;;;;5128936;28;20085;-88
2021/03/18 05:06:52;;;;;;;56.35;23.77;;;;;;;;;;5128035;28;20051;-88
2021/03/18 05:09:18;;;;;;;52.25;22.38;;;;;;;;;;5128062;28;20044;-88
2021/03/18 05:11:48;;;;;;;50.20;24.05;;;;;;;;;;5123532;28;20055;-87
2021/03/18 05:14:15;;;;;;;68.18;23.88;;;;;;;;;;5118496;28;20061;-87
2021/03/18 05:16:43;;;;;;;54.60;24.75;;;;;;;;;;5116882;28;20058;-87
2021/03/18 05:19:11;;;;;;;94.70;27.70;;;;;;;;;;5119683;28;20055;-87
2021/03/18 05:21:39;;;;;;;52.60;24.15;;;;;;;;;;5120945;28;20166;-87
2021/03/18 05:24:09;;;;;;;71.40;23.08;;;;;;;;;;5119762;28;20107;-87
2021/03/18 05:26:35;;;;;;;63.90;25.20;;;;;;;;;;5120227;28;20055;-87
2021/03/18 05:29:02;;;;;;;61.10;24.38;;;;;;;;;;5119152;28;20085;-87
2021/03/18 05:31:34;;;;;;;57.80;24.20;;;;;;;;;;5118398;28;20078;-87
2021/03/18 05:34:02;;;;;;;76.40;26.50;;;;;;;;;;5119858;28;20266;-87
2021/03/18 05:36:33;;;;;;;76.38;26.02;;;;;;;;;;5125017;28;20050;-86
2021/03/18 05:39:02;;;;;;;70.90;24.08;;;;;;;;;;5132204;28;20082;-87
2021/03/18 05:41:29;;;;;;;64.60;24.17;;;;;;;;;;5131631;28;20084;-88
2021/03/18 05:43:58;;;;;;;68.53;25.88;;;;;;;;;;5114905;28;20113;-87
2021/03/18 05:46:28;;;;;;;65.47;23.98;;;;;;;;;;5109963;28;20028;-86
2021/03/18 05:48:59;;;;;;;68.28;25.00;;;;;;;;;;5107731;28;20112;-87
2021/03/18 05:51:25;;;;;;;76.30;25.30;;;;;;;;;;5098045;28;20048;-87
2021/03/18 05:53:52;;;;;;;105.70;26.90;;;;;;;;;;5098658;28;20077;-88
2021/03/18 05:56:22;;;;;;;85.20;26.30;;;;;;;;;;5099978;28;20449;-87
2021/03/18 05:58:49;;;;;;;89.40;27.77;;;;;;;;;;5110658;28;20135;-86
2021/03/18 06:01:21;;;;;;;106.45;26.95;;;;;;;;;;5110393;28;20044;-86
2021/03/18 06:03:48;;;;;;;78.28;24.05;;;;;;;;;;5105400;28;20083;-87
2021/03/18 06:06:19;;;;;;;70.68;24.40;;;;;;;;;;5101457;28;20183;-86
2021/03/18 06:08:45;;;;;;;62.75;22.13;;;;;;;;;;5117234;28;20052;-86
2021/03/18 06:11:11;;;;;;;64.25;22.38;;;;;;;;;;5115267;28;20111;-87
2021/03/18 06:13:38;;;;;;;65.03;21.58;;;;;;;;;;5110987;28;20366;-86
2021/03/18 06:16:08;;;;;;;59.42;21.30;;;;;;;;;;5095813;28;20052;-86
2021/03/18 06:18:35;;;;;;;65.95;22.33;;;;;;;;;;5099421;28;20059;-86
2021/03/18 06:21:06;;;;;;;69.22;22.35;;;;;;;;;;5110278;28;20047;-85
2021/03/18 06:23:32;;;;;;;74.00;23.65;;;;;;;;;;5116769;28;20100;-85
2021/03/18 06:26:02;;;;;;;68.93;23.65;;;;;;;;;;5142364;27;20027;-85
2021/03/18 06:28:29;;;;;;;83.88;25.92;;;;;;;;;;5149230;27;20039;-85
2021/03/18 06:31:07;;;;;;;57.90;21.70;;;;;;;;;;5122983;27;20480;-85
2021/03/18 06:33:50;;;;;;;59.85;20.55;;;;;;;;;;5113834;28;20052;-85
2021/03/18 06:36:42;;;;;;;51.67;18.17;;;;;;;;;;5104676;28;20048;-86
2021/03/18 06:39:10;;;;;;;42.40;16.42;;;;;;;;;;5094758;28;20051;-85
2021/03/18 06:41:40;;;;;;;43.28;15.68;;;;;;;;;;5105323;28;20054;-85
2021/03/18 06:44:23;;;;;;;43.78;15.65;;;;;;;;;;5110315;28;20381;-85
2021/03/18 06:46:55;;;;;;;33.65;13.60;;;;;;;;;;5112235;28;20051;-85
2021/03/18 06:49:22;;;;;;;37.35;12.75;;;;;;;;;;5115948;28;20047;-85
2021/03/18 06:52:08;;;;;;;46.47;13.15;;;;;;;;;;5128590;27;20051;-85
2021/03/18 06:54:38;;;;;;;32.83;12.10;;;;;;;;;;5128733;28;20093;-85
2021/03/18 06:57:06;;;;;;;38.28;13.07;;;;;;;;;;5132651;27;20047;-85
2021/03/18 06:59:39;;;;;;;49.17;13.85;;;;;;;;;;5134482;27;20071;-84
2021/03/18 07:02:07;;;;;;;36.72;12.95;;;;;;;;;;5137250;27;20389;-84
2021/03/18 07:04:38;;;;;;;40.95;14.73;;;;;;;;;;5140704;27;20106;-85
2021/03/18 07:07:07;;;;;;;38.83;13.90;;;;;;;;;;5137424;27;20051;-84
2021/03/18 07:09:33;;;;;;;39.95;15.27;;;;;;;;;;5136958;27;20421;-85
2021/03/18 07:12:05;;;;;;;36.85;14.35;;;;;;;;;;5125039;27;20571;-85
2021/03/18 07:14:33;;;;;;;41.45;16.02;;;;;;;;;;5116565;28;20047;-85
2021/03/18 07:16:59;;;;;;;38.03;13.05;;;;;;;;;;5117447;28;20050;-84
2021/03/18 07:19:26;;;;;;;31.13;13.13;;;;;;;;;;5116290;28;20062;-85
2021/03/18 07:21:56;;;;;;;32.55;14.48;;;;;;;;;;5121975;28;20151;-84
2021/03/18 07:24:54;;;;;;;27.25;12.05;;;;;;;;;;5119676;28;20058;-84
2021/03/18 07:27:21;;;;;;;32.03;13.18;;;;;;;;;;5101160;28;20062;-84
2021/03/18 07:29:50;;;;;;;28.95;12.75;;;;;;;;;;5116944;28;20186;-85
2021/03/18 07:32:17;;;;;;;32.97;13.30;;;;;;;;;;5115548;28;20136;-84
2021/03/18 07:34:44;;;;;;;32.60;13.57;;;;;;;;;;5115139;28;20039;-84
2021/03/18 07:37:11;;;;;;;33.90;14.57;;;;;;;;;;5118793;28;20043;-84
2021/03/18 07:39:40;;;;;;;31.48;12.98;;;;;;;;;;5118638;28;20050;-84
2021/03/18 07:42:06;;;;;;;35.35;14.73;;;;;;;;;;5100693;28;20273;-84
2021/03/18 07:44:36;;;;;;;37.53;15.48;;;;;;;;;;5098619;28;20064;-84
2021/03/18 07:47:03;;;;;;;39.20;15.13;;;;;;;;;;5100154;28;20060;-84
2021/03/18 07:49:36;;;;;;;34.30;14.30;;;;;;;;;;5096997;28;20064;-83
2021/03/18 07:52:04;;;;;;;43.95;15.73;;;;;;;;;;5101193;28;20044;-84
2021/03/18 07:54:31;;;;;;;37.28;15.20;;;;;;;;;;5095874;28;20201;-84
2021/03/18 07:56:58;;;;;;;31.98;14.65;;;;;;;;;;5095804;28;20074;-84
2021/03/18 07:59:31;;;;;;;35.00;13.88;;;;;;;;;;5103039;28;20089;-84
2021/03/18 08:02:50;;;;;;;35.58;14.65;;;;;;;;;;5118122;28;20048;-82
2021/03/18 08:05:36;;;;;;;32.35;14.35;;;;;;;;;;5074247;28;20100;-83
2021/03/18 08:08:04;;;;;;;;;;;;;;;;;;5115887;28;20418;-82
2021/03/18 08:10:41;;;;;;;30.35;12.85;;;;;;;;;;5115230;28;19920;-82
2021/03/18 08:13:12;;;;;;;29.35;12.88;;;;;;;;;;5113405;28;20060;-82
2021/03/18 08:15:46;;;;;;;36.25;14.73;;;;;;;;;;5113833;28;20043;-83
2021/03/18 08:18:13;;;;;;;34.40;14.65;;;;;;;;;;5116666;28;20044;-82
2021/03/18 08:20:42;;;;;;;36.58;14.25;;;;;;;;;;5115643;28;20102;-83
2021/03/18 08:23:23;;;;;;;30.83;13.93;;;;;;;;;;5109584;28;20051;-83
2021/03/18 08:25:51;;;;;;;33.92;14.38;;;;;;;;;;5114011;28;20055;-83
2021/03/18 08:28:38;;;;;;;34.55;14.35;;;;;;;;;;5110882;28;20123;-83
2021/03/18 08:31:09;;;;;;;33.08;15.05;;;;;;;;;;5068119;28;20090;-83
2021/03/18 08:33:42;;;;;;;31.73;15.15;;;;;;;;;;5056633;28;20053;-83
2021/03/18 08:36:21;;;;;;;30.35;15.13;;;;;;;;;;5053166;28;20045;-82
2021/03/18 08:38:48;;;;;;;31.70;13.75;;;;;;;;;;5055007;28;20159;-82
2021/03/18 08:41:27;;;;;;;35.58;14.60;;;;;;;;;;5066706;28;20053;-82
2021/03/18 08:44:15;;;;;;;56.92;15.95;;;;;;;;;;5062739;28;20045;-84
2021/03/18 08:46:48;;;;;;;31.50;15.18;;;;;;;;;;5067502;28;20420;-83
2021/03/18 08:49:33;;;;;;;32.25;16.02;;;;;;;;;;5072377;28;20174;-82
2021/03/18 08:52:14;;;;;;;34.25;15.52;;;;;;;;;;5071558;28;20055;-82
2021/03/18 08:54:43;;;;;;;36.00;15.65;;;;;;;;;;5066413;28;20041;-82
2021/03/18 08:57:11;;;;;;;28.42;15.38;;;;;;;;;;5070220;28;20127;-83
2021/03/18 08:59:45;;;;;;;35.22;15.70;;;;;;;;;;5067132;28;20076;-84
2021/03/18 09:02:14;;;;;;;33.17;15.93;;;;;;;;;;5050659;28;20061;-83
2021/03/18 09:04:45;;;;;;;32.92;16.42;;;;;;;;;;5051924;28;20061;-83
2021/03/18 09:07:39;;;;;;;32.38;15.82;;;;;;;;;;5088049;28;20055;-85
2021/03/18 09:10:07;;;;;;;27.85;16.25;;;;;;;;;;5051297;28;20425;-83
2021/03/18 09:12:44;;;;;;;32.25;15.90;;;;;;;;;;5054169;28;20056;-84
2021/03/18 09:15:10;;;;;;;32.25;16.55;;;;;;;;;;5089350;28;20040;-83
2021/03/18 09:17:37;;;;;;;33.42;17.20;;;;;;;;;;5055977;28;20107;-84
2021/03/18 09:20:09;;;;;;;31.80;15.82;;;;;;;;;;5091027;28;20052;-84
2021/03/18 09:22:38;;;;;;;31.83;14.80;;;;;;;;;;5066758;28;20055;-83
2021/03/18 09:25:05;;;;;;;28.75;14.38;;;;;;;;;;5058369;28;20204;-83
2021/03/18 09:27:38;;;;;;;26.15;13.40;;;;;;;;;;5056136;28;20340;-84
2021/03/18 09:30:35;;;;;;;30.45;14.57;;;;;;;;;;5081007;28;20060;-83
2021/03/18 09:33:02;;;;;;;27.52;13.63;;;;;;;;;;5098745;28;20058;-84
2021/03/18 09:35:29;;;;;;;28.33;14.27;;;;;;;;;;5111677;28;20058;-84
2021/03/18 09:37:57;;;;;;;27.10;14.15;;;;;;;;;;5110763;28;20078;-84
2021/03/18 09:40:30;;;;;;;30.90;14.98;;;;;;;;;;5113220;28;20386;-83
2021/03/18 09:42:56;;;;;;;28.23;14.68;;;;;;;;;;5112753;28;20476;-83
2021/03/18 09:45:22;;;;;;;28.33;13.02;;;;;;;;;;5113074;28;20051;-84
2021/03/18 09:47:49;;;;;;;29.02;13.85;;;;;;;;;;5114481;28;20443;-84
2021/03/18 09:50:16;;;;;;;25.45;12.38;;;;;;;;;;5113337;28;20229;-84
2021/03/18 09:52:45;;;;;;;29.92;13.50;;;;;;;;;;5112012;28;20047;-83
2021/03/18 09:55:16;;;;;;;26.58;12.32;;;;;;;;;;5114824;28;20398;-83
2021/03/18 09:57:42;;;;;;;26.00;12.65;;;;;;;;;;5119628;28;20044;-83
2021/03/18 10:00:11;;;;;;;22.23;11.70;;;;;;;;;;5125168;28;20035;-84
2021/03/18 10:02:39;;;;;;;23.40;12.10;;;;;;;;;;5123943;28;20100;-83
2021/03/18 10:05:06;;;;;;;19.92;10.82;;;;;;;;;;5124482;28;20071;-83
2021/03/18 10:07:33;;;;;;;24.70;11.77;;;;;;;;;;5121209;28;20059;-83
2021/03/18 10:10:00;;;;;;;20.75;10.20;;;;;;;;;;5102580;28;20043;-83
2021/03/18 10:12:28;;;;;;;26.00;10.75;;;;;;;;;;5104036;28;20187;-84
2021/03/18 10:14:59;;;;;;;22.13;11.73;;;;;;;;;;5103259;28;20048;-83
2021/03/18 10:17:27;;;;;;;15.93;8.63;;;;;;;;;;5115787;28;20054;-83
2021/03/18 10:19:59;;;;;;;14.50;8.75;;;;;;;;;;5110648;28;20070;-84
2021/03/18 10:22:30;;;;;;;17.58;8.52;;;;;;;;;;5094671;28;20055;-84
2021/03/18 10:25:10;;;;;;;13.95;7.50;;;;;;;;;;5091531;28;20123;-84
2021/03/18 10:27:43;;;;;;;15.68;7.78;;;;;;;;;;5097664;28;20154;-83
2021/03/18 10:30:34;;;;;;;13.85;7.68;;;;;;;;;;5092014;28;20144;-83
2021/03/18 10:33:03;;;;;;;18.55;7.78;;;;;;;;;;5107232;27;20061;-84
2021/03/18 10:35:31;;;;;;;19.25;9.48;;;;;;;;;;5111490;28;20044;-81
2021/03/18 10:38:05;;;;;;;11.82;6.88;;;;;;;;;;5108641;28;20260;-80
2021/03/18 10:40:47;;;;;;;14.02;7.95;;;;;;;;;;5110025;28;20055;-81
2021/03/18 10:43:30;;;;;;;11.93;6.70;;;;;;;;;;5109502;28;20090;-80
2021/03/18 10:45:57;;;;;;;15.80;7.53;;;;;;;;;;5109513;28;20050;-81
2021/03/18 10:48:24;;;;;;;13.93;6.50;;;;;;;;;;5095238;28;20048;-81
2021/03/18 10:50:51;;;;;;;16.75;7.18;;;;;;;;;;5094820;28;20036;-81
2021/03/18 10:53:18;;;;;;;11.73;5.80;;;;;;;;;;5108696;28;20081;-80
2021/03/18 10:56:05;;;;;;;9.65;4.72;;;;;;;;;;5109807;28;20052;-80
2021/03/18 10:58:35;;;;;;;13.07;5.75;;;;;;;;;;5111132;28;20052;-80
2021/03/18 11:01:04;;;;;;;12.90;6.18;;;;;;;;;;5110660;28;20323;-80
2021/03/18 11:03:32;;;;;;;13.77;6.18;;;;;;;;;;5109364;28;20066;-80
2021/03/18 11:05:59;;;;;;;12.75;6.07;;;;;;;;;;5109815;27;20066;-79
2021/03/18 11:08:32;;;;;;;12.05;5.70;;;;;;;;;;5111990;28;20070;-80
2021/03/18 11:11:00;;;;;;;12.57;5.70;;;;;;;;;;5107965;28;20082;-80
2021/03/18 11:13:28;;;;;;;8.75;3.75;;;;;;;;;;5102391;28;20048;-80
2021/03/18 11:15:54;;;;;;;11.93;4.55;;;;;;;;;;5122279;27;20051;-80
2021/03/18 11:18:27;;;;;;;6.65;4.00;;;;;;;;;;5093125;27;20071;-80
2021/03/18 11:21:01;;;;;;;8.07;3.30;;;;;;;;;;5089695;28;20044;-82
2021/03/18 11:23:34;;;;;;;10.93;3.85;;;;;;;;;;5091537;28;20424;-80
2021/03/18 11:26:02;;;;;;;7.00;3.38;;;;;;;;;;5088105;28;20140;-80
2021/03/18 11:28:28;;;;;;;10.35;4.22;;;;;;;;;;5092768;28;20082;-80
2021/03/18 11:30:59;;;;;;;11.77;4.32;;;;;;;;;;5072559;28;20592;-80
2021/03/18 11:33:29;;;;;;;6.95;3.00;;;;;;;;;;5071073;28;20506;-81
2021/03/18 11:35:55;;;;;;;5.70;1.98;;;;;;;;;;5067675;28;20052;-81
2021/03/18 11:38:24;;;;;;;4.93;1.80;;;;;;;;;;5068623;28;20067;-80
2021/03/18 11:40:52;;;;;;;7.13;2.38;;;;;;;;;;5068320;28;20045;-79
2021/03/18 11:43:18;;;;;;;2.13;1.63;;;;;;;;;;5068390;28;20067;-80
2021/03/18 11:45:52;;;;;;;4.85;1.80;;;;;;;;;;5070685;28;20051;-80
2021/03/18 11:48:21;;;;;;;3.78;1.63;;;;;;;;;;5070620;28;20062;-80
2021/03/18 11:50:47;;;;;;;2.85;1.45;;;;;;;;;;5071647;28;20463;-80
2021/03/18 11:53:17;;;;;;;4.57;2.08;;;;;;;;;;5071008;28;20056;-79
2021/03/18 11:55:43;;;;;;;3.50;1.63;;;;;;;;;;5070328;28;20140;-80
2021/03/18 11:58:09;;;;;;;4.25;2.00;;;;;;;;;;5070421;28;20288;-80
2021/03/18 12:00:37;;;;;;;4.00;2.13;;;;;;;;;;5077707;28;20076;-79
2021/03/18 12:03:05;;;;;;;4.95;2.10;;;;;;;;;;5080641;28;20052;-82
2021/03/18 12:05:38;;;;;;;4.35;1.90;;;;;;;;;;5079429;28;20056;-80
2021/03/18 12:08:07;;;;;;;5.55;2.13;;;;;;;;;;5075744;28;20485;-81
2021/03/18 12:10:33;;;;;;;4.15;2.08;;;;;;;;;;5093387;28;20044;-80
2021/03/18 12:13:00;;;;;;;6.25;2.47;;;;;;;;;;5093444;28;20239;-80
2021/03/18 12:15:30;;;;;;;4.68;2.20;;;;;;;;;;5099510;28;20216;-80
2021/03/18 12:17:57;;;;;;;5.22;2.30;;;;;;;;;;5086555;28;20045;-80
2021/03/18 12:20:28;;;;;;;6.28;2.58;;;;;;;;;;5080040;28;20286;-80
2021/03/18 12:23:20;;;;;;;5.65;2.30;;;;;;;;;;5076661;28;20049;-80
2021/03/18 12:25:49;;;;;;;7.22;2.45;;;;;;;;;;5090977;28;20164;-79
2021/03/18 12:28:19;;;;;;;4.15;2.03;;;;;;;;;;5091387;28;20503;-81
2021/03/18 12:30:46;;;;;;;5.57;2.00;;;;;;;;;;5091441;28;20066;-79
2021/03/18 12:33:13;;;;;;;6.25;1.95;;;;;;;;;;5090616;28;20074;-79
2021/03/18 12:35:41;;;;;;;7.57;2.20;;;;;;;;;;5090420;27;20171;-80
2021/03/18 12:38:08;;;;;;;5.68;1.88;;;;;;;;;;5101542;28;20108;-79
2021/03/18 12:40:36;;;;;;;6.10;2.17;;;;;;;;;;5114270;28;20059;-79
2021/03/18 12:43:09;;;;;;;10.25;2.10;;;;;;;;;;5129164;27;20195;-80
2021/03/18 12:45:35;;;;;;;6.75;2.33;;;;;;;;;;5120889;27;20044;-79
2021/03/18 12:48:02;;;;;;;7.70;2.47;;;;;;;;;;5103332;28;20141;-80
2021/03/18 12:50:38;;;;;;;6.75;2.08;;;;;;;;;;5113717;28;20200;-80
2021/03/18 12:53:04;;;;;;;8.38;1.90;;;;;;;;;;5109454;28;20108;-80
2021/03/18 12:55:30;;;;;;;10.07;2.10;;;;;;;;;;5110043;28;20052;-80
2021/03/18 12:57:57;;;;;;;8.93;1.80;;;;;;;;;;5103770;28;20418;-80
2021/03/18 13:00:34;;;;;;;8.30;1.80;;;;;;;;;;5097019;28;20403;-80
2021/03/18 13:03:01;;;;;;;6.93;1.60;;;;;;;;;;5088267;28;20282;-80
2021/03/18 13:05:30;;;;;;;6.15;2.75;;;;;;;;;;5088806;28;20304;-80
2021/03/18 13:08:04;;;;;;;3.47;1.65;;;;;;;;;;5090029;28;20043;-80
2021/03/18 13:10:34;;;;;;;7.80;1.60;;;;;;;;;;5091513;28;20079;-80
2021/03/18 13:13:01;;;;;;;2.58;1.27;;;;;;;;;;5090733;28;20307;-80
2021/03/18 13:15:30;;;;;;;5.15;1.88;;;;;;;;;;5102371;28;20047;-80
2021/03/18 13:17:59;;;;;;;4.45;1.60;;;;;;;;;;5111753;27;20106;-80
2021/03/18 13:20:26;;;;;;;5.75;1.30;;;;;;;;;;5108907;27;20138;-80
2021/03/18 13:22:52;;;;;;;7.35;1.55;;;;;;;;;;5108565;28;20071;-80
2021/03/18 13:25:22;;;;;;;6.80;2.03;;;;;;;;;;5109695;28;20319;-79
2021/03/18 13:27:48;;;;;;;8.75;1.80;;;;;;;;;;5108538;28;20331;-79
2021/03/18 13:30:16;;;;;;;5.82;2.08;;;;;;;;;;5109932;28;20120;-80
2021/03/18 13:32:43;;;;;;;5.80;2.08;;;;;;;;;;5110727;28;20063;-80
2021/03/18 13:35:29;;;;;;;;;;;;;;;;;;5109046;28;20244;-80
2021/03/18 13:37:59;;;;;;;6.78;2.40;;;;;;;;;;5123575;27;19954;-80
2021/03/18 13:40:26;;;;;;;7.13;2.83;;;;;;;;;;5128141;27;20163;-79
2021/03/18 13:42:58;;;;;;;7.53;2.45;;;;;;;;;;5126827;27;20052;-80
2021/03/18 13:45:24;;;;;;;8.68;2.42;;;;;;;;;;5114582;27;20063;-80
2021/03/18 13:47:53;;;;;;;6.55;2.25;;;;;;;;;;5087045;28;20477;-80
2021/03/18 13:50:19;;;;;;;4.75;2.25;;;;;;;;;;5087312;28;20108;-79
2021/03/18 13:52:45;;;;;;;6.10;2.08;;;;;;;;;;5092657;28;20534;-79
2021/03/18 13:55:19;;;;;;;6.35;2.10;;;;;;;;;;5107655;28;20048;-80
2021/03/18 13:57:53;;;;;;;4.40;1.85;;;;;;;;;;5101169;28;20312;-80
2021/03/18 14:00:20;;;;;;;7.70;2.40;;;;;;;;;;5093724;28;20040;-80
2021/03/18 14:02:46;;;;;;;9.90;2.50;;;;;;;;;;5090885;28;20430;-80
2021/03/18 14:05:20;;;;;;;10.18;2.05;;;;;;;;;;5090296;28;20203;-80
2021/03/18 14:07:54;;;;;;;6.43;2.25;;;;;;;;;;5090148;28;20221;-80
2021/03/18 14:10:27;;;;;;;10.68;2.00;;;;;;;;;;5094991;28;20059;-80
2021/03/18 14:12:53;;;;;;;7.07;2.25;;;;;;;;;;5090300;28;20036;-81
2021/03/18 14:15:20;;;;;;;4.97;2.17;;;;;;;;;;5092041;28;20047;-80
2021/03/18 14:17:46;;;;;;;6.78;1.85;;;;;;;;;;5088652;28;20245;-81
2021/03/18 14:20:19;;;;;;;12.23;2.33;;;;;;;;;;5096185;28;20111;-80
2021/03/18 14:22:45;;;;;;;6.28;2.25;;;;;;;;;;5099907;28;20032;-79
2021/03/18 14:25:12;;;;;;;4.90;2.10;;;;;;;;;;5113707;28;20114;-79
2021/03/18 14:27:41;;;;;;;3.15;2.00;;;;;;;;;;5096048;28;20052;-79
2021/03/18 14:30:26;;;;;;;7.07;2.67;;;;;;;;;;5084720;28;20060;-79
2021/03/18 14:32:53;;;;;;;6.75;2.30;;;;;;;;;;5097100;28;20054;-80
2021/03/18 14:35:23;;;;;;;4.72;2.75;;;;;;;;;;5098935;28;20420;-80
2021/03/18 14:37:49;;;;;;;6.82;2.53;;;;;;;;;;5092060;28;20048;-81
2021/03/18 14:40:19;;;;;;;6.47;2.75;;;;;;;;;;5099613;28;20440;-80
2021/03/18 14:43:04;;;;;;;4.28;2.70;;;;;;;;;;5087202;28;20055;-81